Time;durP1;ratioP1;P1;durP2;ratioP2;P2;SDS_P1;SDS_P2;PMS_P1;PMS_P2;Temp;Humidity;BMP_temperature;BMP_pressure;BME280_temperature;BME280_humidity;BME280_pressure;Samples;Min_cycle;Max_cycle;Signal;HPM_P1;HPM_P2
2021/03/28 00:02:57;;;;;;;1.70;0.90;;;8.60;77.60;;;;;;6181775;28;20229;-77
2021/03/28 00:06:13;;;;;;;3.33;0.80;;;8.60;77.80;;;;;;6165036;28;20371;-77
2021/03/28 00:09:23;;;;;;;1.27;1.03;;;8.60;78.40;;;;;;6163257;28;20218;-77
2021/03/28 00:12:30;;;;;;;1.80;0.90;;;8.60;78.10;;;;;;6159806;28;20312;-77
2021/03/28 00:15:39;;;;;;;2.33;0.87;;;8.70;78.50;;;;;;6149229;28;20286;-77
2021/03/28 00:19:05;;;;;;;1.47;1.10;;;8.70;79.50;;;;;;6159603;28;20231;-77
2021/03/28 00:22:20;;;;;;;2.20;1.27;;;8.60;79.60;;;;;;6142032;28;20294;-77
2021/03/28 00:25:35;;;;;;;1.30;0.90;;;8.60;80.00;;;;;;6140859;28;20235;-77
2021/03/28 00:28:41;;;;;;;3.27;1.30;;;8.60;80.30;;;;;;6158847;28;20236;-77
2021/03/28 00:32:07;;;;;;;1.57;1.10;;;8.60;79.80;;;;;;6158372;28;20613;-77
2021/03/28 00:35:14;;;;;;;2.90;1.63;;;8.60;79.50;;;;;;6141716;28;20222;-77
2021/03/28 00:38:43;;;;;;;1.80;1.20;;;8.60;79.70;;;;;;6140321;28;20232;-77
2021/03/28 00:41:56;;;;;;;1.80;1.13;;;8.60;80.40;;;;;;6117283;29;20339;-76
2021/03/28 00:45:22;;;;;;;4.10;1.50;;;8.50;82.90;;;;;;6094498;29;20255;-76
2021/03/28 00:48:30;;;;;;;2.33;1.43;;;8.50;86.90;;;;;;6111171;28;20229;-77
2021/03/28 00:51:45;;;;;;;3.93;1.63;;;8.50;89.40;;;;;;6110660;28;20261;-77
2021/03/28 00:54:54;;;;;;;1.97;1.20;;;8.40;89.50;;;;;;6110319;28;20222;-77
2021/03/28 00:58:23;;;;;;;2.83;1.37;;;8.40;90.20;;;;;;6102034;28;20610;-77
2021/03/28 01:01:52;;;;;;;2.03;1.30;;;8.30;90.60;;;;;;6133111;28;20330;-77
2021/03/28 01:04:56;;;;;;;4.10;1.40;;;8.20;90.40;;;;;;6128828;28;20240;-77
2021/03/28 01:08:31;;;;;;;2.93;1.20;;;8.10;91.20;;;;;;6154108;28;20238;-77
2021/03/28 01:11:42;;;;;;;2.03;1.20;;;8.10;90.40;;;;;;6068928;29;20241;-77
2021/03/28 01:14:50;;;;;;;1.53;1.00;;;8.00;90.00;;;;;;6064634;29;20235;-77
2021/03/28 01:18:04;;;;;;;2.67;1.20;;;7.90;90.30;;;;;;6003871;29;20236;-77
2021/03/28 01:21:33;;;;;;;3.33;1.00;;;7.90;90.20;;;;;;6045980;29;20288;-77
2021/03/28 01:24:46;;;;;;;2.03;0.80;;;7.80;88.80;;;;;;6026142;29;20252;-77
2021/03/28 01:28:14;;;;;;;2.40;0.90;;;7.70;88.10;;;;;;6040763;29;20338;-77
2021/03/28 01:31:28;;;;;;;2.60;0.90;;;7.70;88.90;;;;;;6041931;29;20243;-77
2021/03/28 01:34:54;;;;;;;1.00;0.77;;;7.60;88.30;;;;;;6042848;29;20304;-77
2021/03/28 01:38:21;;;;;;;1.43;0.87;;;7.60;87.90;;;;;;6026680;29;20237;-77
2021/03/28 01:41:29;;;;;;;3.17;0.80;;;7.50;89.10;;;;;;6025501;29;20256;-77
2021/03/28 01:44:58;;;;;;;3.30;0.87;;;7.50;90.20;;;;;;6025954;29;20242;-77
2021/03/28 01:48:20;;;;;;;1.90;0.60;;;7.50;89.40;;;;;;6075873;29;20330;-76
2021/03/28 01:51:25;;;;;;;3.73;1.00;;;7.40;89.10;;;;;;6102865;29;20224;-76
2021/03/28 01:54:39;;;;;;;3.70;0.97;;;7.40;89.40;;;;;;6138583;28;20227;-77
2021/03/28 01:58:07;;;;;;;3.23;1.00;;;7.40;89.20;;;;;;6138140;28;20223;-77
2021/03/28 02:01:44;;;;;;;1.93;0.73;;;7.40;89.50;;;;;;6138402;28;20746;-77
2021/03/28 02:04:57;;;;;;;1.57;0.90;;;7.40;90.20;;;;;;6136442;28;20245;-76
2021/03/28 02:08:25;;;;;;;4.93;0.93;;;7.30;89.40;;;;;;6138367;28;20223;-77
2021/03/28 02:11:41;;;;;;;2.10;0.80;;;7.30;88.90;;;;;;6120946;28;20238;-76
2021/03/28 02:15:20;;;;;;;2.87;1.03;;;7.20;89.60;;;;;;6136725;28;20234;-77
2021/03/28 02:18:44;;;;;;;2.83;0.80;;;7.20;89.50;;;;;;6111272;29;20223;-77
2021/03/28 02:22:26;;;;;;;3.57;0.80;;;7.20;89.50;;;;;;6113485;29;20227;-77
2021/03/28 02:25:46;;;;;;;1.93;0.80;;;7.10;90.60;;;;;;6113737;29;20314;-77
2021/03/28 02:29:05;;;;;;;1.63;0.80;;;7.10;90.30;;;;;;6113234;29;20689;-77
2021/03/28 02:32:23;;;;;;;1.33;0.80;;;7.10;90.90;;;;;;6113031;29;20235;-77
2021/03/28 02:35:47;;;;;;;2.40;0.77;;;7.00;91.90;;;;;;6111612;29;20227;-77
2021/03/28 02:39:10;;;;;;;1.50;0.63;;;6.90;91.20;;;;;;6113480;29;20256;-77
2021/03/28 02:42:16;;;;;;;2.73;0.63;;;6.90;91.50;;;;;;6112699;29;20250;-77
2021/03/28 02:45:37;;;;;;;4.27;1.23;;;6.80;90.70;;;;;;6118784;28;20779;-76
2021/03/28 02:49:09;;;;;;;2.20;0.70;;;6.80;91.20;;;;;;6137338;28;20237;-76
2021/03/28 02:52:44;;;;;;;1.87;0.70;;;6.70;91.20;;;;;;6136170;28;20617;-76
2021/03/28 02:56:00;;;;;;;1.93;0.93;;;6.70;91.00;;;;;;6136692;28;20238;-77
2021/03/28 02:59:22;;;;;;;1.43;0.83;;;6.60;91.40;;;;;;6140592;28;20369;-76
2021/03/28 03:02:49;;;;;;;1.73;0.63;;;6.50;91.80;;;;;;6124388;28;20428;-77
2021/03/28 03:06:20;;;;;;;1.80;0.83;;;6.60;91.50;;;;;;6135564;28;20704;-77
2021/03/28 03:09:26;;;;;;;1.87;0.80;;;6.50;92.10;;;;;;6135782;28;20238;-76
2021/03/28 03:12:55;;;;;;;0.90;0.80;;;6.50;92.00;;;;;;6134403;28;20234;-76
2021/03/28 03:16:08;;;;;;;2.30;1.07;;;6.40;92.40;;;;;;6136570;28;20230;-77
2021/03/28 03:19:24;;;;;;;1.67;0.60;;;6.40;92.60;;;;;;6134018;28;20385;-76
2021/03/28 03:23:17;;;;;;;3.50;0.77;;;6.40;92.70;;;;;;6135533;28;20325;-76
2021/03/28 03:26:58;;;;;;;0.77;0.60;;;6.40;92.60;;;;;;6151431;28;20344;-77
2021/03/28 03:30:21;;;;;;;0.97;0.90;;;6.40;92.80;;;;;;6107494;28;20240;-77
2021/03/28 03:33:37;;;;;;;0.60;0.40;;;6.40;93.00;;;;;;6135262;28;20293;-77
2021/03/28 03:36:54;;;;;;;2.20;0.80;;;6.30;93.20;;;;;;6136114;28;20261;-77
2021/03/28 03:40:27;;;;;;;2.73;0.80;;;6.30;93.50;;;;;;6127717;28;20655;-77
2021/03/28 03:43:37;;;;;;;1.70;0.63;;;6.30;93.70;;;;;;6186255;28;20251;-76
2021/03/28 03:46:51;;;;;;;1.80;0.60;;;6.20;93.90;;;;;;6183051;28;20620;-76
2021/03/28 03:50:17;;;;;;;2.80;0.90;;;6.10;94.10;;;;;;6164580;28;20683;-77
2021/03/28 03:53:19;;;;;;;1.77;0.77;;;6.10;94.40;;;;;;6182512;28;20466;-77
2021/03/28 03:56:35;;;;;;;1.70;1.10;;;6.00;94.50;;;;;;6163662;28;20242;-77
2021/03/28 04:00:17;;;;;;;1.53;0.90;;;6.00;95.40;;;;;;6169799;28;20233;-76
2021/03/28 04:03:38;;;;;;;1.50;0.67;;;5.80;95.00;;;;;;6164271;28;20241;-76
2021/03/28 04:07:02;;;;;;;1.47;0.70;;;5.80;96.30;;;;;;6170395;28;20234;-76
2021/03/28 04:10:16;;;;;;;1.90;0.80;;;5.70;96.80;;;;;;6181947;28;20700;-76
2021/03/28 04:13:52;;;;;;;2.67;0.90;;;5.60;97.30;;;;;;6149138;28;20240;-77
2021/03/28 04:16:53;;;;;;;1.23;0.90;;;5.60;96.70;;;;;;6182461;28;20243;-77
2021/03/28 04:20:20;;;;;;;2.00;0.67;;;5.60;97.20;;;;;;6148211;28;20235;-77
2021/03/28 04:23:57;;;;;;;1.23;0.60;;;5.60;97.20;;;;;;6183055;28;20230;-76
2021/03/28 04:27:28;;;;;;;2.70;1.00;;;5.70;97.40;;;;;;6158629;28;20737;-77
2021/03/28 04:30:52;;;;;;;1.17;0.70;;;5.60;97.30;;;;;;6165495;28;20231;-76
2021/03/28 04:34:33;;;;;;;1.67;0.80;;;5.60;97.60;;;;;;6161816;28;20263;-76
2021/03/28 04:37:35;;;;;;;2.03;0.70;;;5.60;97.60;;;;;;6166065;28;20713;-76
2021/03/28 04:40:59;;;;;;;2.03;1.00;;;5.60;97.40;;;;;;6181854;28;20761;-76
2021/03/28 04:44:19;;;;;;;2.03;0.53;;;5.60;97.60;;;;;;6169014;28;20239;-76
2021/03/28 04:47:57;;;;;;;1.90;0.90;;;5.50;97.70;;;;;;6186414;28;20232;-76
2021/03/28 04:51:27;;;;;;;3.77;1.00;;;5.50;98.30;;;;;;6186217;28;20263;-76
2021/03/28 04:55:07;;;;;;;0.60;0.60;;;5.50;98.30;;;;;;6162920;28;20232;-77
2021/03/28 04:58:34;;;;;;;1.33;0.67;;;5.50;98.60;;;;;;6162520;28;20230;-77
2021/03/28 05:01:57;;;;;;;3.20;0.83;;;5.50;99.00;;;;;;6144970;28;20239;-76
2021/03/28 05:05:46;;;;;;;2.53;0.60;;;5.50;99.10;;;;;;6145508;28;20734;-76
2021/03/28 05:08:57;;;;;;;2.30;1.10;;;5.50;99.30;;;;;;6162907;28;20248;-76
2021/03/28 05:12:10;;;;;;;2.20;0.90;;;5.50;99.20;;;;;;6162097;28;20320;-76
2021/03/28 05:15:52;;;;;;;1.87;1.10;;;5.50;99.10;;;;;;6165625;28;20230;-76
2021/03/28 05:19:34;;;;;;;3.00;0.90;;;5.60;99.80;;;;;;6149324;28;20706;-76
2021/03/28 05:23:00;;;;;;;1.67;0.80;;;5.60;99.70;;;;;;6166417;28;20244;-76
2021/03/28 05:26:05;;;;;;;3.07;0.70;;;5.60;99.80;;;;;;6184121;28;20228;-76
2021/03/28 05:29:09;;;;;;;1.70;0.90;;;5.70;99.90;;;;;;6185576;28;20238;-76
2021/03/28 05:32:53;;;;;;;1.53;0.77;;;5.60;99.90;;;;;;6185036;28;20240;-76
2021/03/28 05:36:25;;;;;;;3.63;1.10;;;5.70;99.90;;;;;;6140924;28;20237;-76
2021/03/28 05:40:01;;;;;;;2.10;0.80;;;5.70;99.20;;;;;;6184463;28;20236;-77
2021/03/28 05:43:24;;;;;;;2.37;0.80;;;5.80;99.30;;;;;;6186080;28;20649;-77
2021/03/28 05:46:59;;;;;;;1.73;0.83;;;5.90;99.60;;;;;;6167035;28;20611;-76
2021/03/28 05:50:26;;;;;;;1.33;0.63;;;5.90;99.60;;;;;;6169076;28;20287;-76
2021/03/28 05:53:48;;;;;;;0.97;0.80;;;6.00;99.20;;;;;;6167072;28;20744;-76
2021/03/28 05:57:35;;;;;;;2.30;1.10;;;6.10;99.30;;;;;;6185905;28;20242;-76
2021/03/28 06:00:46;;;;;;;3.30;0.80;;;6.20;99.70;;;;;;6167772;28;20239;-77
2021/03/28 06:04:22;;;;;;;1.20;0.60;;;6.30;99.60;;;;;;6187516;28;20232;-76
2021/03/28 06:08:02;;;;;;;1.77;0.83;;;6.30;99.60;;;;;;6184673;28;20718;-76
2021/03/28 06:11:38;;;;;;;3.13;0.80;;;6.50;99.60;;;;;;6184413;28;20237;-76
2021/03/28 06:14:43;;;;;;;2.57;1.30;;;6.50;98.10;;;;;;6185798;28;20241;-77
2021/03/28 06:18:21;;;;;;;2.70;1.20;;;6.60;96.70;;;;;;6166707;28;20243;-77
2021/03/28 06:21:26;;;;;;;3.27;1.20;;;6.70;95.70;;;;;;6166681;28;20723;-76
2021/03/28 06:25:01;;;;;;;2.73;1.07;;;6.80;94.90;;;;;;6184841;28;20229;-77
2021/03/28 06:28:16;;;;;;;2.00;1.00;;;6.90;94.20;;;;;;6185093;28;20225;-77
2021/03/28 06:31:40;;;;;;;3.73;1.20;;;7.10;93.70;;;;;;6151052;28;20217;-76
2021/03/28 06:35:02;;;;;;;2.33;1.00;;;7.20;92.80;;;;;;6167116;28;20229;-76
2021/03/28 06:38:22;;;;;;;2.27;1.30;;;7.30;91.30;;;;;;6188154;28;20225;-77
2021/03/28 06:41:59;;;;;;;2.50;1.30;;;7.30;91.10;;;;;;6183877;28;20238;-77
2021/03/28 06:45:38;;;;;;;4.13;1.00;;;7.50;91.00;;;;;;6165565;28;20225;-76
2021/03/28 06:49:04;;;;;;;2.87;1.20;;;7.60;90.60;;;;;;6166763;28;20276;-77
2021/03/28 06:52:43;;;;;;;3.63;1.20;;;7.70;90.20;;;;;;6166730;28;20365;-77
2021/03/28 06:55:46;;;;;;;2.90;1.27;;;7.90;88.90;;;;;;6183610;28;20234;-77
2021/03/28 06:59:07;;;;;;;1.73;1.27;;;7.90;89.50;;;;;;6167105;28;20308;-77
2021/03/28 07:02:46;;;;;;;2.97;1.10;;;8.00;87.00;;;;;;6183435;28;20254;-77
2021/03/28 07:05:57;;;;;;;2.00;1.07;;;8.20;88.80;;;;;;6183245;28;20241;-77
2021/03/28 07:09:26;;;;;;;2.83;1.20;;;8.30;85.90;;;;;;6182434;28;20364;-77
2021/03/28 07:13:16;;;;;;;2.70;1.07;;;8.40;86.60;;;;;;6165890;28;20234;-77
2021/03/28 07:16:39;;;;;;;1.50;1.00;;;8.50;85.40;;;;;;6166396;28;20709;-77
2021/03/28 07:20:08;;;;;;;1.30;1.00;;;8.70;85.30;;;;;;6184331;28;20761;-77
2021/03/28 07:23:12;;;;;;;4.20;1.30;;;8.80;83.80;;;;;;6182951;28;20691;-77
2021/03/28 07:26:32;;;;;;;4.13;1.30;;;8.80;83.10;;;;;;6183004;28;20246;-76
2021/03/28 07:30:03;;;;;;;2.97;1.30;;;9.00;83.30;;;;;;6165482;28;20726;-77
2021/03/28 07:33:23;;;;;;;1.90;1.17;;;9.00;82.30;;;;;;6165038;28;20276;-77
2021/03/28 07:36:43;;;;;;;1.73;0.90;;;9.10;81.30;;;;;;6165796;28;20273;-77
2021/03/28 07:39:50;;;;;;;2.73;1.30;;;9.20;81.20;;;;;;6182378;28;20234;-77
2021/03/28 07:43:13;;;;;;;4.77;1.30;;;9.30;81.30;;;;;;6183513;28;20639;-77
2021/03/28 07:46:49;;;;;;;2.33;1.03;;;9.50;79.40;;;;;;6182235;28;20241;-77
2021/03/28 07:50:28;;;;;;;2.50;1.20;;;9.60;78.80;;;;;;6182476;28;20334;-77
2021/03/28 07:53:52;;;;;;;3.67;1.30;;;9.60;77.90;;;;;;6166217;28;20298;-77
2021/03/28 07:57:23;;;;;;;2.77;1.37;;;9.60;78.20;;;;;;6166078;28;20555;-77
2021/03/28 08:01:02;;;;;;;4.30;1.10;;;9.40;78.10;;;;;;6035000;29;20274;-77
2021/03/28 08:04:29;;;;;;;3.77;1.10;;;9.30;77.70;;;;;;6015832;29;20240;-77
2021/03/28 08:07:39;;;;;;;5.20;1.67;;;9.30;78.90;;;;;;6016042;29;20415;-77
2021/03/28 08:11:04;;;;;;;7.10;2.70;;;9.70;77.30;;;;;;6016530;29;20316;-77
2021/03/28 08:14:27;;;;;;;2.90;1.50;;;10.00;76.70;;;;;;5995960;29;20766;-77
2021/03/28 08:17:54;;;;;;;3.33;1.30;;;10.40;73.70;;;;;;6036271;29;20362;-77
2021/03/28 08:21:31;;;;;;;4.03;1.47;;;10.70;72.00;;;;;;6044402;29;20233;-77
2021/03/28 08:25:11;;;;;;;3.63;1.30;;;11.00;71.10;;;;;;6011826;29;20698;-77
2021/03/28 08:28:43;;;;;;;1.30;1.00;;;11.40;67.60;;;;;;6029869;29;20324;-75
2021/03/28 08:31:55;;;;;;;5.23;1.60;;;11.60;67.10;;;;;;6042602;29;20232;-75
2021/03/28 08:35:37;;;;;;;3.50;1.47;;;11.80;65.80;;;;;;6043251;29;20324;-75
2021/03/28 08:39:05;;;;;;;3.53;1.50;;;11.90;63.80;;;;;;6145953;28;20238;-75
2021/03/28 08:42:24;;;;;;;4.60;1.47;;;12.20;63.00;;;;;;6144380;28;20237;-75
2021/03/28 08:45:52;;;;;;;4.57;1.73;;;12.50;61.70;;;;;;6143574;28;20230;-75
2021/03/28 08:49:10;;;;;;;3.63;1.53;;;12.80;60.20;;;;;;6161303;28;20587;-75
2021/03/28 08:52:36;;;;;;;3.40;1.50;;;12.80;59.20;;;;;;6162518;28;20238;-75
2021/03/28 08:55:49;;;;;;;3.93;1.53;;;12.90;59.80;;;;;;6175265;28;20320;-75
2021/03/28 08:58:53;;;;;;;2.17;1.10;;;13.30;58.70;;;;;;6186647;28;20233;-75
2021/03/28 09:02:07;;;;;;;4.60;1.30;;;13.90;57.90;;;;;;6170245;28;20234;-75
2021/03/28 09:05:32;;;;;;;7.63;1.80;;;14.20;56.10;;;;;;6169381;28;20231;-75
2021/03/28 09:08:42;;;;;;;3.83;1.50;;;14.20;54.60;;;;;;6152596;28;20268;-75
2021/03/28 09:11:58;;;;;;;6.60;2.03;;;14.00;54.90;;;;;;6161150;28;20240;-75
2021/03/28 09:15:15;;;;;;;4.27;1.87;;;13.70;54.90;;;;;;6163036;28;20323;-75
2021/03/28 09:18:24;;;;;;;3.60;1.53;;;13.40;55.20;;;;;;6161992;28;20616;-75
2021/03/28 09:22:19;;;;;;;4.43;1.30;;;13.40;55.40;;;;;;6162442;28;20243;-75
2021/03/28 09:25:34;;;;;;;4.37;1.47;;;13.60;54.50;;;;;;6162303;28;20273;-75
2021/03/28 09:29:17;;;;;;;3.60;1.67;;;14.00;53.40;;;;;;6144250;28;20277;-76
2021/03/28 09:32:43;;;;;;;5.60;1.90;;;14.30;54.60;;;;;;6144802;28;20616;-75
2021/03/28 09:36:13;;;;;;;6.07;2.00;;;14.50;53.10;;;;;;6161205;28;20259;-75
2021/03/28 09:39:36;;;;;;;4.90;1.80;;;14.50;53.50;;;;;;6185051;28;20765;-75
2021/03/28 09:43:12;;;;;;;5.60;1.67;;;14.80;52.70;;;;;;6180989;28;20241;-75
2021/03/28 09:46:30;;;;;;;4.40;1.60;;;15.20;51.30;;;;;;6144298;28;20254;-76
2021/03/28 09:49:37;;;;;;;3.70;1.63;;;15.30;50.70;;;;;;6161088;28;20617;-75
2021/03/28 09:52:54;;;;;;;2.77;1.50;;;15.30;50.50;;;;;;6162383;28;20237;-75
2021/03/28 09:55:56;;;;;;;5.40;2.03;;;15.50;50.40;;;;;;6159012;28;20241;-76
2021/03/28 09:59:22;;;;;;;7.00;1.90;;;15.20;48.80;;;;;;6151123;28;20339;-75
2021/03/28 10:02:44;;;;;;;5.37;1.57;;;14.80;50.40;;;;;;6160255;28;20233;-75
2021/03/28 10:05:49;;;;;;;5.87;1.77;;;14.50;49.90;;;;;;6159171;28;20664;-75
2021/03/28 10:09:19;;;;;;;2.67;1.40;;;14.60;49.60;;;;;;6160841;28;20666;-75
2021/03/28 10:12:31;;;;;;;3.53;1.50;;;14.70;50.30;;;;;;6143717;28;20687;-76
2021/03/28 10:16:00;;;;;;;3.63;1.37;;;15.00;47.90;;;;;;6164350;28;20790;-75
2021/03/28 10:19:33;;;;;;;5.07;1.77;;;14.70;48.00;;;;;;6168619;28;20321;-76
2021/03/28 10:23:04;;;;;;;3.60;1.40;;;14.70;49.60;;;;;;6160332;28;20234;-75
2021/03/28 10:26:41;;;;;;;5.23;1.50;;;15.20;47.80;;;;;;6144373;28;20704;-76
2021/03/28 10:30:08;;;;;;;3.07;1.27;;;15.40;47.40;;;;;;6142425;28;20245;-76
2021/03/28 10:33:48;;;;;;;4.83;1.60;;;16.00;48.20;;;;;;6184071;28;20241;-76
2021/03/28 10:37:31;;;;;;;5.10;1.67;;;16.40;44.90;;;;;;6149337;28;20242;-76
2021/03/28 10:40:53;;;;;;;3.03;1.30;;;16.40;44.70;;;;;;6158653;28;20246;-75
2021/03/28 10:44:20;;;;;;;3.73;1.17;;;16.30;43.90;;;;;;6159772;28;20226;-76
2021/03/28 10:47:55;;;;;;;6.43;1.40;;;16.40;44.10;;;;;;6160649;28;20230;-75
2021/03/28 10:51:15;;;;;;;4.77;1.30;;;16.50;43.50;;;;;;6141225;28;20234;-76
2021/03/28 10:54:44;;;;;;;2.77;1.40;;;16.40;43.00;;;;;;6157287;28;20703;-76
2021/03/28 10:58:27;;;;;;;2.60;1.07;;;16.60;44.40;;;;;;6141451;28;20704;-76
2021/03/28 11:01:58;;;;;;;3.97;1.60;;;16.90;43.20;;;;;;6135637;28;20241;-76
2021/03/28 11:05:39;;;;;;;1.63;1.00;;;16.90;41.90;;;;;;6142125;28;20377;-75
2021/03/28 11:08:49;;;;;;;3.40;1.07;;;16.60;42.40;;;;;;6156898;28;20289;-76
2021/03/28 11:11:59;;;;;;;2.93;1.30;;;16.70;43.70;;;;;;6137831;28;20784;-76
2021/03/28 11:15:31;;;;;;;4.77;1.33;;;17.20;43.80;;;;;;6121242;28;20693;-75
2021/03/28 11:19:11;;;;;;;2.83;1.40;;;17.10;42.00;;;;;;6163518;28;20217;-76
2021/03/28 11:22:43;;;;;;;3.83;1.50;;;17.00;42.30;;;;;;6182163;28;20233;-76
2021/03/28 11:26:05;;;;;;;3.67;1.53;;;17.40;42.60;;;;;;6153008;28;20259;-76
2021/03/28 11:29:44;;;;;;;2.33;1.30;;;17.60;42.20;;;;;;6176458;28;20597;-76
2021/03/28 11:33:12;;;;;;;3.03;1.40;;;17.30;42.10;;;;;;6166358;28;20296;-76
2021/03/28 11:36:20;;;;;;;2.80;1.33;;;17.30;43.00;;;;;;6158559;28;20232;-76
2021/03/28 11:39:26;;;;;;;2.10;0.90;;;17.60;42.50;;;;;;6158785;28;20303;-76
2021/03/28 11:42:29;;;;;;;4.10;1.27;;;17.70;41.80;;;;;;6158934;28;20292;-76
2021/03/28 11:45:42;;;;;;;3.20;1.30;;;17.70;41.70;;;;;;6157421;28;20240;-76
2021/03/28 11:49:09;;;;;;;3.17;1.57;;;17.80;41.70;;;;;;6173316;28;20239;-76
2021/03/28 11:52:16;;;;;;;4.63;1.63;;;18.20;40.80;;;;;;6158248;28;20593;-76
2021/03/28 11:55:46;;;;;;;2.80;1.10;;;18.20;40.60;;;;;;6158577;28;20230;-76
2021/03/28 11:58:51;;;;;;;6.93;1.67;;;18.00;41.00;;;;;;6153323;28;20312;-75
2021/03/28 12:02:04;;;;;;;5.33;1.70;;;17.70;40.90;;;;;;6159489;28;20232;-76
2021/03/28 12:05:05;;;;;;;5.00;1.30;;;17.80;40.70;;;;;;6156941;28;20230;-76
2021/03/28 12:08:10;;;;;;;2.70;1.30;;;17.90;40.30;;;;;;6158226;28;20269;-76
2021/03/28 12:11:36;;;;;;;4.30;1.47;;;17.80;40.80;;;;;;6158047;28;20230;-76
2021/03/28 12:14:39;;;;;;;3.90;1.57;;;17.80;40.00;;;;;;6157834;28;20237;-76
2021/03/28 12:17:42;;;;;;;3.93;1.27;;;17.80;40.10;;;;;;6157360;28;20232;-76
2021/03/28 12:20:44;;;;;;;4.83;1.50;;;17.90;41.30;;;;;;6158134;28;20641;-75
2021/03/28 12:24:09;;;;;;;4.20;1.47;;;18.10;40.40;;;;;;6157278;28;20280;-76
2021/03/28 12:27:27;;;;;;;3.20;1.30;;;18.20;40.60;;;;;;6156370;28;20237;-76
2021/03/28 12:30:29;;;;;;;7.23;1.53;;;18.30;39.50;;;;;;6155698;28;20724;-76
2021/03/28 12:34:11;;;;;;;4.37;1.33;;;18.20;40.30;;;;;;6145343;28;20304;-76
2021/03/28 12:37:14;;;;;;;2.50;1.40;;;18.40;39.90;;;;;;6149302;28;20624;-76
2021/03/28 12:40:27;;;;;;;3.43;1.50;;;18.30;39.60;;;;;;6158103;28;20297;-76
2021/03/28 12:43:36;;;;;;;3.27;1.47;;;18.00;39.80;;;;;;6161942;28;20222;-76
2021/03/28 12:46:49;;;;;;;5.97;1.43;;;17.90;40.70;;;;;;6158365;28;20724;-76
2021/03/28 12:49:55;;;;;;;3.33;1.50;;;18.00;40.90;;;;;;6158373;28;20672;-76
2021/03/28 12:53:30;;;;;;;4.57;1.43;;;18.40;40.20;;;;;;6157534;28;20264;-76
2021/03/28 12:56:32;;;;;;;3.40;1.20;;;18.70;39.40;;;;;;6137531;28;20269;-76
2021/03/28 12:59:40;;;;;;;3.90;1.87;;;18.50;39.50;;;;;;6158105;28;20287;-76
2021/03/28 13:02:42;;;;;;;2.83;1.07;;;18.30;39.80;;;;;;6156690;28;20226;-76
2021/03/28 13:06:26;;;;;;;2.27;1.53;;;18.40;39.50;;;;;;6160497;28;20230;-76
2021/03/28 13:09:33;;;;;;;3.97;1.23;;;18.50;39.30;;;;;;6142926;28;20575;-76
2021/03/28 13:12:35;;;;;;;4.43;1.67;;;18.90;40.50;;;;;;6164767;28;20222;-76
2021/03/28 13:15:47;;;;;;;3.80;1.43;;;19.00;38.20;;;;;;6166204;28;20236;-76
2021/03/28 13:18:49;;;;;;;4.03;1.70;;;18.90;39.00;;;;;;6145127;28;20234;-76
2021/03/28 13:22:01;;;;;;;5.30;1.03;;;19.00;39.60;;;;;;6158430;28;20226;-76
2021/03/28 13:25:14;;;;;;;2.97;1.50;;;19.10;39.00;;;;;;6155396;28;20290;-76
2021/03/28 13:28:21;;;;;;;4.10;1.33;;;19.30;38.40;;;;;;6151583;28;20726;-76
2021/03/28 13:31:41;;;;;;;4.17;1.70;;;19.70;38.70;;;;;;6160953;28;20234;-76
2021/03/28 13:34:46;;;;;;;2.17;1.37;;;19.80;38.20;;;;;;6160807;28;20233;-76
2021/03/28 13:37:55;;;;;;;3.47;1.40;;;20.10;38.10;;;;;;6162868;28;20289;-76
2021/03/28 13:41:20;;;;;;;3.73;1.67;;;20.80;37.60;;;;;;6161999;28;20374;-76
2021/03/28 13:44:43;;;;;;;4.13;1.53;;;21.30;36.20;;;;;;6151641;28;20579;-76
2021/03/28 13:47:51;;;;;;;4.17;1.70;;;21.70;35.60;;;;;;6122234;28;20318;-76
2021/03/28 13:51:12;;;;;;;4.63;1.60;;;21.50;35.70;;;;;;6146622;28;20719;-76
2021/03/28 13:54:16;;;;;;;4.40;1.87;;;21.10;36.20;;;;;;6178402;28;20241;-76
2021/03/28 13:57:25;;;;;;;2.97;1.60;;;21.30;35.40;;;;;;6158859;28;20289;-76
2021/03/28 14:00:34;;;;;;;3.80;1.40;;;21.70;35.00;;;;;;6167726;28;20240;-76
2021/03/28 14:03:39;;;;;;;2.50;1.30;;;21.60;34.60;;;;;;6182875;28;20328;-76
2021/03/28 14:06:41;;;;;;;4.07;1.80;;;21.70;35.30;;;;;;6166162;28;20241;-76
2021/03/28 14:10:04;;;;;;;3.53;2.17;;;21.60;34.60;;;;;;6165320;28;20279;-76
2021/03/28 14:13:09;;;;;;;3.57;1.40;;;21.80;33.70;;;;;;6182547;28;20380;-76
2021/03/28 14:16:16;;;;;;;3.67;1.57;;;22.00;33.90;;;;;;6181769;28;20269;-76
2021/03/28 14:19:32;;;;;;;4.47;1.50;;;21.80;34.60;;;;;;6182145;28;20647;-76
2021/03/28 14:22:48;;;;;;;2.73;1.33;;;21.50;33.70;;;;;;6185098;28;20261;-76
2021/03/28 14:26:16;;;;;;;1.97;1.20;;;20.40;35.10;;;;;;6166773;28;20332;-76
2021/03/28 14:29:37;;;;;;;4.73;1.50;;;19.00;37.10;;;;;;6184962;28;20371;-75
2021/03/28 14:32:44;;;;;;;3.57;1.50;;;18.00;38.90;;;;;;6167610;28;20246;-75
2021/03/28 14:35:52;;;;;;;6.67;1.70;;;17.40;39.50;;;;;;6184567;28;20229;-75
2021/03/28 14:39:06;;;;;;;3.37;1.40;;;17.10;40.00;;;;;;6167178;28;20237;-77
2021/03/28 14:42:29;;;;;;;4.17;1.33;;;16.90;40.70;;;;;;6150106;28;20247;-76
2021/03/28 14:45:55;;;;;;;3.63;1.43;;;16.80;40.90;;;;;;6166009;28;20304;-77
2021/03/28 14:49:27;;;;;;;4.03;1.20;;;16.50;40.10;;;;;;6166622;28;20707;-77
2021/03/28 14:52:40;;;;;;;3.33;1.43;;;16.20;40.80;;;;;;6184594;28;20234;-77
2021/03/28 14:56:00;;;;;;;2.93;1.77;;;16.30;41.30;;;;;;6182330;28;20229;-77
2021/03/28 14:59:05;;;;;;;5.50;1.87;;;16.40;41.10;;;;;;6166995;28;20241;-77
2021/03/28 15:02:34;;;;;;;4.93;1.63;;;16.30;41.60;;;;;;6165362;28;20237;-77
2021/03/28 15:05:58;;;;;;;2.50;1.37;;;16.40;40.90;;;;;;6183458;28;20237;-77
2021/03/28 15:09:21;;;;;;;3.67;1.40;;;16.30;41.10;;;;;;6165657;28;20388;-77
2021/03/28 15:12:31;;;;;;;3.87;1.53;;;16.30;41.60;;;;;;6165779;28;20355;-77
2021/03/28 15:15:43;;;;;;;5.43;1.83;;;16.30;41.30;;;;;;6166607;28;20221;-77
2021/03/28 15:18:48;;;;;;;3.40;1.53;;;15.80;42.40;;;;;;6182413;28;20269;-77
2021/03/28 15:22:02;;;;;;;4.57;1.70;;;15.50;42.60;;;;;;6183710;28;20297;-77
2021/03/28 15:25:14;;;;;;;3.60;1.80;;;15.20;42.60;;;;;;6182516;28;20645;-77
2021/03/28 15:28:29;;;;;;;2.73;1.60;;;14.90;43.20;;;;;;6184136;28;20229;-77
2021/03/28 15:31:58;;;;;;;3.20;1.60;;;14.80;43.90;;;;;;6165411;28;20375;-76
2021/03/28 15:35:18;;;;;;;2.83;1.17;;;14.80;43.80;;;;;;6183115;28;20271;-77
2021/03/28 15:38:38;;;;;;;5.07;1.70;;;14.70;43.70;;;;;;6182943;28;20722;-77
2021/03/28 15:42:10;;;;;;;2.63;1.50;;;14.70;43.90;;;;;;6139571;28;20242;-77
2021/03/28 15:45:20;;;;;;;2.20;1.40;;;14.70;44.10;;;;;;6135126;28;20230;-77
2021/03/28 15:48:50;;;;;;;2.20;1.40;;;14.60;44.10;;;;;;6133619;28;20341;-77
2021/03/28 15:52:33;;;;;;;4.57;1.70;;;14.50;43.90;;;;;;6134120;28;20228;-76
2021/03/28 15:56:08;;;;;;;4.17;1.47;;;14.30;44.40;;;;;;6133619;28;20234;-76
2021/03/28 15:59:31;;;;;;;3.27;1.30;;;14.20;44.70;;;;;;6038898;29;20271;-77
2021/03/28 16:03:00;;;;;;;2.47;0.93;;;14.20;44.80;;;;;;6039018;29;20785;-76
2021/03/28 16:06:17;;;;;;;5.20;1.40;;;14.20;45.00;;;;;;6039109;29;20243;-77
2021/03/28 16:09:45;;;;;;;1.90;1.20;;;14.10;44.90;;;;;;6037815;29;20214;-76
2021/03/28 16:13:11;;;;;;;2.43;1.43;;;14.00;45.40;;;;;;6038686;29;20730;-76
2021/03/28 16:16:48;;;;;;;2.87;1.30;;;13.80;45.70;;;;;;6045765;29;20248;-76
2021/03/28 16:20:46;;;;;;;3.37;1.13;;;13.70;44.80;;;;;;6062301;29;20616;-76
2021/03/28 16:23:59;;;;;;;3.93;1.20;;;13.70;44.90;;;;;;5991621;29;20235;-76
2021/03/28 16:27:08;;;;;;;3.37;1.20;;;13.60;45.20;;;;;;5976596;29;20245;-76
2021/03/28 16:30:26;;;;;;;3.47;1.43;;;13.50;45.30;;;;;;5985918;29;20215;-76
2021/03/28 16:34:01;;;;;;;2.53;1.17;;;13.40;45.90;;;;;;5981293;29;20240;-77
2021/03/28 16:37:22;;;;;;;1.73;1.00;;;13.30;46.00;;;;;;6038413;29;20247;-76
2021/03/28 16:40:32;;;;;;;2.83;1.10;;;13.10;47.20;;;;;;6046996;29;20808;-76
2021/03/28 16:43:36;;;;;;;3.60;1.37;;;12.90;48.20;;;;;;6073093;29;20263;-76
2021/03/28 16:46:52;;;;;;;3.07;1.07;;;12.70;49.70;;;;;;6072524;29;20245;-76
2021/03/28 16:50:11;;;;;;;3.83;1.20;;;12.40;50.30;;;;;;6089068;29;20361;-76
2021/03/28 16:53:30;;;;;;;1.97;1.10;;;12.20;50.70;;;;;;6083307;28;20229;-76
2021/03/28 16:57:09;;;;;;;6.37;1.47;;;11.90;51.70;;;;;;6165173;28;20308;-76
2021/03/28 17:00:15;;;;;;;4.50;1.43;;;11.70;52.60;;;;;;6162586;28;20695;-76
2021/03/28 17:03:22;;;;;;;5.80;1.63;;;11.40;53.20;;;;;;6162885;28;20218;-76
2021/03/28 17:06:26;;;;;;;9.13;1.13;;;11.20;53.90;;;;;;6161290;28;20696;-76
2021/03/28 17:09:35;;;;;;;2.57;1.10;;;11.00;54.60;;;;;;6145606;28;20317;-76
2021/03/28 17:12:44;;;;;;;5.57;1.53;;;10.70;55.10;;;;;;6162186;28;20357;-76
2021/03/28 17:15:50;;;;;;;4.40;1.30;;;10.50;55.80;;;;;;6161291;28;20228;-76
2021/03/28 17:19:23;;;;;;;2.43;1.13;;;10.30;56.80;;;;;;6178436;28;20338;-76
2021/03/28 17:22:48;;;;;;;3.07;1.33;;;10.10;57.20;;;;;;6161227;28;20316;-76
2021/03/28 17:26:16;;;;;;;4.43;1.20;;;9.80;57.80;;;;;;6161167;28;20253;-76
2021/03/28 17:29:45;;;;;;;1.67;1.00;;;9.50;58.80;;;;;;6160734;28;20312;-76
2021/03/28 17:32:56;;;;;;;2.57;1.30;;;9.20;59.60;;;;;;6161784;28;20236;-76